Detall de PIREP

Printer-friendly versionPDF version

[2013/11/22 10:16:00]
Flight IATA:CT3249
Pilot Number:042
Company ICAO:CAT
Aircraft Type:MD11/E
PAX:183
Aircraft Registration:PAX
Departing Airport: LOWW
Destination Airport: LEPA
Alternate Airport:LEBL
Online: VATSIM
Route:OSPEN UM138 ABRUK UM984 DIVKO UN852 VERSO UL129 LUNIK
Flight Level:F360
No Slew and time accel
No pause
Crash detect
Detect pilot in Cockpit between each 30 and 45 minutes
10:16 Zero fuel Weight: 377797 Lbs, Fuel Weight: 110057 Lbs
10:16 VATSIM:LOWW 220950Z 15011KT 7000 FEW004 BKN006 06/05 Q1005 NOSIG
10:16 VATSIM:LEPA 221000Z 32007KT 280V350 9999 FEW020 SCT045 12/05 Q1004 NOSIG
10:16 VOICE CATALONIAN
10:23 Parking Brakes off
10:30 Take-off
10:30 Take off Weight: 486261 Lbs
10:30 Wind: 148º @ 011 Knots Heading: 117º
10:30 POS N48º 06´ 51´´ E016º 33´ 33´´
10:31 Gear Up: 177 Knots
10:31 Flaps:5 at 177 Knots
10:31 Flaps:4 at 198 Knots
10:31 Flaps:3 at 201 Knots
10:31 Flaps:2 at 202 Knots
10:31 Flaps:1 at 204 Knots
10:34 Flaps:0 at 261 Knots
10:46 Wind:082º@015 Knots Heading: 253º Ground Speed: 481 Knots Altitude 32910 ft
10:48 TOC
10:48 Fuel Weight: 97666 Lb
11:01 Wind:089º@024 Knots Heading: 241º Ground Speed: 481 Knots Altitude 35606 ft
11:16 Wind:069º@020 Knots Heading: 232º Ground Speed: 478 Knots Altitude 35623 ft
11:31 Wind:005º@030 Knots Heading: 215º Ground Speed: 486 Knots Altitude 35610 ft
11:46 Wind:336º@063 Knots Heading: 255º Ground Speed: 449 Knots Altitude 35600 ft
12:01 Wind:313º@042 Knots Heading: 194º Ground Speed: 479 Knots Altitude 35705 ft
12:02 TOD
12:02 Fuel Weight: 78877 Lb
12:16 Wind:016º@040 Knots Heading: 175º Ground Speed: 437 Knots Altitude 18133 ft
12:24 Flaps:1 at 229 Knots
12:26 Flaps:2 at 228 Knots
12:26 Flaps:3 at 228 Knots
12:31 Wind:059º@034 Knots Heading: 062º Ground Speed: 164 Knots Altitude 5026 ft
12:38 Gear Down: 194 Knots
12:38 Flaps:4 at 193 Knots
12:38 Flaps:3 at 193 Knots
12:38 Flaps:4 at 193 Knots
12:38 Flaps:5 at 190 Knots
12:38 Flaps:6 at 189 Knots
12:39 Flaps:7 at 172 Knots
12:39 Flaps:8 at 170 Knots
12:41 Gear Up: 170 Knots
12:41 Flaps:7 at 169 Knots
12:41 Flaps:6 at 173 Knots
12:41 Flaps:7 at 172 Knots
12:41 Flaps:6 at 172 Knots
12:42 Flaps:5 at 161 Knots
12:42 Flaps:4 at 163 Knots
12:42 Flaps:3 at 162 Knots
12:42 Flaps:2 at 168 Knots
12:42 Flaps:3 at 168 Knots
12:42 Flaps:2 at 168 Knots
12:42 Flaps:1 at 169 Knots
12:46 Wind:048º@018 Knots Heading: 264º Ground Speed: 231 Knots Altitude 3024 ft
12:48 Flaps:2 at 211 Knots
12:48 Flaps:3 at 207 Knots
12:51 Gear Down: 174 Knots
12:51 Flaps:4 at 174 Knots
12:51 Flaps:3 at 173 Knots
12:51 Flaps:4 at 174 Knots
12:51 Flaps:5 at 175 Knots
12:52 Flaps:6 at 173 Knots
12:52 Flaps:7 at 176 Knots
12:52 Flaps:8 at 175 Knots
12:52 Flaps:7 at 175 Knots
12:52 Flaps:8 at 174 Knots
12:55 TouchDown:Rate -229 ft/min Speed: 149 Knots
12:55 VATSIM:LEPA 221230Z 07011KT 050V110 9999 FEW018 SCT040 08/05 Q1005 NOSIG
12:55 Land
12:55 Wind:065º@011 Knots
12:55 Heading: 058º
12:55 Flight Duration: 02:25
12:55 Landing Weight: 440773 Lbs
12:55 POS N39º 33´ 12´´ E002º 43´ 27´´
12:58 Parking brakes on
12:58 Block to Block Duration: 02:35
12:58 Final Fuel: 62456 Lbls
12:58 Spent Fuel: 47601 Lbls
12:58 Flight Length: 951 NM
12:58 TOD Land Length: 255 NM

Exportar CSV

Powered by Drupal - Modified by Danger4k